Time;durP1;ratioP1;P1;durP2;ratioP2;P2;SDS_P1;SDS_P2;PMS_P1;PMS_P2;Temp;Humidity;BMP_temperature;BMP_pressure;BME280_temperature;BME280_humidity;BME280_pressure;Samples;Min_cycle;Max_cycle;Signal;HPM_P1;HPM_P2
2021/04/15 00:00:45;;;;;;;22.17;15.58;;;;;;;1.56;77.31;97385.93;1820543;78;26634;-78
2021/04/15 00:03:18;;;;;;;20.65;15.20;;;;;;;1.58;77.29;97387.91;1797672;78;27508;-78
2021/04/15 00:05:46;;;;;;;21.27;15.32;;;;;;;1.60;77.28;97383.28;1808474;78;25790;-79
2021/04/15 00:08:16;;;;;;;18.87;14.98;;;;;;;1.57;77.27;97380.92;1820674;78;26461;-78
2021/04/15 00:10:47;;;;;;;22.62;15.13;;;;;;;1.57;77.29;97378.27;1818651;78;27107;-79
2021/04/15 00:13:26;;;;;;;21.07;14.80;;;;;;;1.58;77.30;97379.94;1792911;78;25720;-80
2021/04/15 00:15:54;;;;;;;18.80;14.13;;;;;;;1.57;77.34;97376.93;1792457;78;27491;-80
2021/04/15 00:18:22;;;;;;;23.12;14.68;;;;;;;1.58;77.37;97377.27;1792515;78;25778;-79
2021/04/15 00:20:50;;;;;;;16.30;13.25;;;;;;;1.58;77.37;97370.63;1797322;78;26271;-79
2021/04/15 00:23:18;;;;;;;18.77;12.63;;;;;;;1.61;77.38;97377.46;1806924;78;26770;-79
2021/04/15 00:25:45;;;;;;;21.05;13.28;;;;;;;1.61;77.39;97374.30;1777095;79;25781;-79
2021/04/15 00:28:14;;;;;;;16.32;12.75;;;;;;;1.59;77.35;97378.11;1774357;79;27602;-79
2021/04/15 00:30:42;;;;;;;14.25;11.28;;;;;;;1.58;77.33;97374.61;1764652;79;26501;-79
2021/04/15 00:33:11;;;;;;;18.42;11.95;;;;;;;1.58;77.36;97373.28;1780599;79;26349;-79
2021/04/15 00:35:40;;;;;;;17.25;11.90;;;;;;;1.51;77.31;97370.92;1780587;79;25858;-79
2021/04/15 00:38:10;;;;;;;15.48;12.20;;;;;;;1.49;77.41;97375.55;1780454;79;25800;-79
2021/04/15 00:40:40;;;;;;;15.72;11.25;;;;;;;1.50;77.47;97365.75;1771040;79;27469;-79
2021/04/15 00:43:08;;;;;;;17.60;11.50;;;;;;;1.46;77.46;97370.53;1779431;79;25727;-78
2021/04/15 00:45:42;;;;;;;17.55;12.58;;;;;;;1.37;77.50;97365.66;1771934;79;25804;-78
2021/04/15 00:48:32;;;;;;;16.87;11.38;;;;;;;1.37;77.60;97363.49;1782927;78;25858;-79
2021/04/15 00:51:04;;;;;;;15.35;10.88;;;;;;;1.38;77.61;97367.83;1744312;81;25847;-79
2021/04/15 00:53:49;;;;;;;12.73;9.78;;;;;;;1.37;77.67;97366.16;1737668;81;27511;-78
2021/04/15 00:56:17;;;;;;;13.28;9.88;;;;;;;1.36;77.58;97368.47;1730418;81;25841;-78
2021/04/15 00:58:47;;;;;;;11.73;8.60;;;;;;;1.31;77.69;97370.78;1732344;81;25820;-78
2021/04/15 01:01:14;;;;;;;13.22;8.35;;;;;;;1.24;77.66;97367.05;1730761;81;26338;-78
2021/04/15 01:03:41;;;;;;;10.48;7.85;;;;;;;1.21;77.77;97369.52;1730884;81;25849;-79
2021/04/15 01:06:10;;;;;;;10.53;7.97;;;;;;;1.22;77.85;97373.01;1730820;81;28573;-78
2021/04/15 01:08:37;;;;;;;10.32;7.55;;;;;;;1.24;77.92;97366.55;1730779;81;25716;-79
2021/04/15 01:11:47;;;;;;;9.35;7.20;;;;;;;1.17;77.84;97367.34;1730759;81;25823;-79
2021/04/15 01:14:56;;;;;;;10.25;6.83;;;;;;;1.16;77.93;97369.65;1739784;81;26139;-78
2021/04/15 01:17:44;;;;;;;10.03;6.70;;;;;;;1.15;78.00;97366.65;1730593;81;25875;-78
2021/04/15 01:20:38;;;;;;;8.98;7.15;;;;;;;1.12;78.04;97370.94;1730842;81;28923;-78
2021/04/15 01:23:17;;;;;;;8.18;6.60;;;;;;;1.08;78.16;97365.95;1730173;81;25864;-78
2021/04/15 01:26:21;;;;;;;9.75;7.15;;;;;;;1.07;78.26;97360.78;1730272;81;25808;-79
2021/04/15 01:29:16;;;;;;;9.05;6.58;;;;;;;1.09;78.26;97364.93;1664836;84;26487;-78
2021/04/15 01:32:13;;;;;;;11.53;6.83;;;;;;;1.00;78.23;97359.21;1675459;84;25785;-78
2021/04/15 01:35:05;;;;;;;9.93;6.47;;;;;;;0.91;78.27;97357.48;1659419;84;27576;-78
2021/04/15 01:37:56;;;;;;;8.43;6.43;;;;;;;0.90;78.44;97358.95;1659444;84;27060;-78
2021/04/15 01:40:46;;;;;;;10.65;6.62;;;;;;;0.82;78.49;97351.75;1661376;84;25832;-78
2021/04/15 01:43:34;;;;;;;8.70;6.50;;;;;;;0.79;78.61;97350.72;1659382;85;26489;-79
2021/04/15 01:46:03;;;;;;;8.30;7.03;;;;;;;0.72;78.65;97357.64;1659263;84;25834;-78
2021/04/15 01:48:52;;;;;;;7.42;6.10;;;;;;;0.70;78.82;97355.63;1672817;84;26961;-79
2021/04/15 01:51:27;;;;;;;9.13;6.65;;;;;;;0.69;78.85;97355.28;1694120;82;26414;-78
2021/04/15 01:54:12;;;;;;;8.80;6.60;;;;;;;0.72;78.96;97353.12;1727478;81;25788;-78
2021/04/15 01:57:13;;;;;;;9.15;6.45;;;;;;;0.77;79.00;97350.03;1760175;80;26314;-78
2021/04/15 02:03:18;;;;;;;10.98;6.95;;;;;;;0.81;79.12;97350.08;1811165;76;35242;-78
2021/04/15 02:05:49;;;;;;;10.15;7.10;;;;;;;0.78;79.16;97353.03;1776152;78;25811;-78
2021/04/15 02:08:24;;;;;;;9.73;6.85;;;;;;;0.75;79.06;97350.67;1776288;78;27480;-79
2021/04/15 02:11:06;;;;;;;10.00;6.87;;;;;;;0.78;79.20;97353.03;1790893;78;25870;-78
2021/04/15 02:13:37;;;;;;;8.28;6.20;;;;;;;0.78;79.23;97349.54;1797088;77;25823;-78
2021/04/15 02:16:08;;;;;;;8.78;7.65;;;;;;;0.79;79.11;97346.73;1766298;78;25840;-78
2021/04/15 02:18:40;;;;;;;10.80;8.10;;;;;;;0.79;79.19;97349.88;1808879;78;26029;-78
2021/04/15 02:21:16;;;;;;;8.03;6.50;;;;;;;0.74;79.16;97339.70;1794678;78;27496;-78
2021/04/15 02:23:52;;;;;;;8.55;7.25;;;;;;;0.73;79.23;97343.34;1803376;78;26349;-78
2021/04/15 02:26:37;;;;;;;11.75;8.28;;;;;;;0.76;79.30;97349.69;1814008;78;25653;-78
2021/04/15 02:29:18;;;;;;;12.98;8.30;;;;;;;0.73;79.29;97346.83;1801392;78;25812;-78
2021/04/15 02:31:50;;;;;;;10.30;7.53;;;;;;;0.72;79.33;97345.69;1776330;78;26714;-78
2021/04/15 02:34:30;;;;;;;;;;;;;;;0.72;79.36;97337.19;1798073;78;27500;-78
2021/04/15 02:37:19;;;;;;;7.03;5.50;;;;;;;0.71;79.42;97342.69;1798940;78;25797;-78
2021/04/15 02:39:52;;;;;;;8.30;5.03;;;;;;;0.68;79.45;97338.99;1814941;78;25622;-78
2021/04/15 02:42:27;;;;;;;6.03;5.40;;;;;;;0.66;79.48;97340.96;1813237;78;25764;-78
2021/04/15 02:45:04;;;;;;;9.40;7.72;;;;;;;0.67;79.51;97343.96;1784017;78;25822;-78
2021/04/15 02:47:37;;;;;;;13.85;11.40;;;;;;;0.67;79.49;97339.98;1805966;78;28453;-78
2021/04/15 02:50:12;;;;;;;10.05;7.25;;;;;;;0.65;79.34;97343.27;1792736;78;25699;-78
2021/04/15 02:52:44;;;;;;;11.70;10.50;;;;;;;0.60;79.42;97338.92;1808398;78;25745;-78
2021/04/15 02:55:22;;;;;;;11.43;8.33;;;;;;;0.62;79.51;97339.09;1806401;78;26306;-78
2021/04/15 02:57:54;;;;;;;11.48;8.30;;;;;;;0.62;79.53;97336.92;1803645;78;25758;-78
2021/04/15 03:00:30;;;;;;;8.88;7.05;;;;;;;0.66;79.62;97340.47;1802936;78;27486;-78
2021/04/15 03:03:05;;;;;;;9.03;6.55;;;;;;;0.69;79.63;97341.50;1796164;78;25742;-79
2021/04/15 03:08:23;;;;;;;7.53;6.05;;;;;;;0.82;79.64;97334.48;1840408;76;34713;-76
2021/04/15 03:10:58;;;;;;;8.70;6.78;;;;;;;0.81;79.60;97342.11;1776445;78;25853;-76
2021/04/15 03:13:34;;;;;;;9.78;7.78;;;;;;;0.82;79.56;97339.80;1795536;78;28534;-76
2021/04/15 03:16:05;;;;;;;11.05;8.45;;;;;;;0.84;79.51;97332.52;1774985;78;26215;-77
2021/04/15 03:18:55;;;;;;;9.18;7.85;;;;;;;0.85;79.51;97337.30;1795667;78;25754;-76
2021/04/15 03:21:45;;;;;;;7.53;5.90;;;;;;;0.84;79.50;97332.52;1794582;78;25714;-78
2021/04/15 03:24:20;;;;;;;7.85;6.30;;;;;;;0.80;79.49;97337.78;1803690;77;25805;-78
2021/04/15 03:27:26;;;;;;;6.17;5.25;;;;;;;0.78;79.45;97329.61;1797655;78;27493;-78
2021/04/15 03:30:05;;;;;;;7.33;5.70;;;;;;;0.75;79.48;97339.20;1785456;78;25744;-78
2021/04/15 03:33:13;;;;;;;7.50;6.03;;;;;;;0.77;79.56;97334.09;1803697;78;25865;-78
2021/04/15 03:36:06;;;;;;;7.90;6.37;;;;;;;0.74;79.53;97326.41;1803762;78;25775;-78
2021/04/15 03:38:38;;;;;;;12.30;9.50;;;;;;;0.75;79.59;97330.74;1800702;78;25659;-78
2021/04/15 03:41:13;;;;;;;15.03;10.55;;;;;;;0.78;79.64;97326.46;1754419;80;27290;-78
2021/04/15 03:43:57;;;;;;;14.43;9.70;;;;;;;0.80;79.63;97331.14;1809096;78;25721;-78
2021/04/15 03:46:44;;;;;;;10.63;9.00;;;;;;;0.82;79.63;97330.50;1788451;78;25749;-78
2021/04/15 03:49:26;;;;;;;13.22;8.50;;;;;;;0.83;79.60;97325.52;1806588;78;26252;-78
2021/04/15 03:51:57;;;;;;;8.30;7.22;;;;;;;0.84;79.60;97332.52;1805842;78;25750;-78
2021/04/15 03:54:29;;;;;;;8.58;6.95;;;;;;;0.83;79.60;97332.66;1790573;78;28685;-78
2021/04/15 03:56:58;;;;;;;;;;;;;;;0.84;79.61;97329.85;1799596;78;25724;-78
2021/04/15 03:59:55;;;;;;;6.67;5.35;;;;;;;0.89;79.64;97331.55;1799450;78;25691;-78
2021/04/15 04:02:48;;;;;;;7.12;5.83;;;;;;;0.89;79.60;97335.53;1790009;78;25772;-78
2021/04/15 04:05:23;;;;;;;7.08;6.37;;;;;;;0.90;79.57;97334.55;1793162;78;25745;-78
2021/04/15 04:08:01;;;;;;;7.75;6.90;;;;;;;0.85;79.53;97334.64;1778535;78;28541;-78
2021/04/15 04:10:43;;;;;;;9.43;8.20;;;;;;;0.85;79.57;97336.81;1805492;77;25642;-77
2021/04/15 04:13:18;;;;;;;9.43;7.67;;;;;;;0.82;79.56;97331.83;1798648;78;25677;-78
2021/04/15 04:18:42;;;;;;;7.42;6.35;;;;;;;0.89;79.59;97331.55;1861383;76;34732;-76
2021/04/15 04:21:20;;;;;;;10.85;6.53;;;;;;;0.85;79.55;97337.30;1832961;75;26028;-76
2021/04/15 04:24:02;;;;;;;8.18;6.97;;;;;;;0.86;79.59;97338.97;1852864;77;27654;-78
2021/04/15 04:26:37;;;;;;;9.70;7.83;;;;;;;0.86;79.62;97338.48;1846279;75;26816;-77
2021/04/15 04:29:31;;;;;;;8.25;7.33;;;;;;;0.88;79.44;97339.66;1811870;77;25288;-77
2021/04/15 04:32:03;;;;;;;12.28;8.85;;;;;;;0.87;79.60;97339.32;1778324;79;25745;-77
2021/04/15 04:34:33;;;;;;;8.43;7.10;;;;;;;0.89;79.64;97339.52;1766504;79;25707;-77
2021/04/15 04:37:03;;;;;;;9.38;7.53;;;;;;;0.96;79.68;97342.41;1759777;80;28609;-78
2021/04/15 04:39:31;;;;;;;11.90;8.85;;;;;;;1.04;79.65;97345.97;1787272;80;25806;-78
2021/04/15 04:42:18;;;;;;;13.18;10.60;;;;;;;1.06;79.56;97342.66;1819373;78;25748;-78
2021/04/15 04:44:53;;;;;;;13.00;9.53;;;;;;;1.11;79.50;97344.00;1784402;78;25745;-78
2021/04/15 04:47:37;;;;;;;14.85;9.15;;;;;;;1.11;79.47;97342.68;1771504;78;25779;-78
2021/04/15 04:50:22;;;;;;;14.60;9.30;;;;;;;1.15;79.48;97342.72;1781202;78;28508;-78
2021/04/15 04:53:00;;;;;;;14.20;8.60;;;;;;;1.16;79.40;97344.39;1768026;78;25654;-78
2021/04/15 04:55:39;;;;;;;12.18;8.00;;;;;;;1.21;79.37;97352.75;1767763;78;25726;-78
2021/04/15 04:58:16;;;;;;;15.78;9.60;;;;;;;1.18;79.28;97350.39;1764276;78;25897;-78
2021/04/15 05:00:55;;;;;;;18.12;11.10;;;;;;;1.19;79.23;97348.08;1782380;78;25755;-78
2021/04/15 05:03:26;;;;;;;16.82;9.93;;;;;;;1.21;79.28;97351.42;1783411;78;27445;-78
2021/04/15 05:06:23;;;;;;;8.93;7.17;;;;;;;1.25;79.28;97344.78;1772361;78;25730;-78
2021/04/15 05:09:10;;;;;;;8.00;6.83;;;;;;;1.22;79.16;97353.06;1775814;78;25861;-78
2021/04/15 05:11:48;;;;;;;10.72;7.20;;;;;;;1.18;79.16;97350.39;1773662;78;25835;-78
2021/04/15 05:14:22;;;;;;;8.28;6.37;;;;;;;1.18;79.22;97354.39;1793576;78;25813;-78
2021/04/15 05:16:55;;;;;;;12.30;8.25;;;;;;;1.23;79.21;97352.08;1794255;78;27497;-78
2021/04/15 05:19:23;;;;;;;9.43;7.05;;;;;;;1.28;79.24;97348.48;1762753;78;25900;-78
2021/04/15 05:21:52;;;;;;;9.75;7.15;;;;;;;1.34;79.21;97351.83;1773937;78;25785;-78
2021/04/15 05:24:30;;;;;;;11.45;8.60;;;;;;;1.37;79.14;97346.20;1771291;79;25735;-78
2021/04/15 05:27:01;;;;;;;10.18;7.78;;;;;;;1.34;79.09;97344.69;1771338;78;26023;-78
2021/04/15 05:29:33;;;;;;;11.05;7.95;;;;;;;1.31;78.94;97348.17;1786927;78;28569;-78
2021/04/15 05:32:01;;;;;;;9.53;7.53;;;;;;;1.31;79.04;97349.50;1775841;78;25687;-78
2021/04/15 05:34:40;;;;;;;12.68;7.60;;;;;;;1.33;79.10;97342.18;1779359;78;25721;-78
2021/04/15 05:37:19;;;;;;;10.20;7.45;;;;;;;1.33;79.08;97344.34;1789492;78;25818;-78
2021/04/15 05:39:47;;;;;;;9.03;6.37;;;;;;;1.36;79.04;97347.19;1779585;78;25824;-78
2021/04/15 05:42:38;;;;;;;9.25;7.10;;;;;;;1.41;79.02;97348.91;1770777;78;27532;-78
2021/04/15 05:45:25;;;;;;;10.28;7.85;;;;;;;1.35;78.86;97342.86;1790608;78;25816;-78
2021/04/15 05:48:06;;;;;;;9.80;7.15;;;;;;;1.32;78.91;97346.69;1790985;78;26626;-78
2021/04/15 05:50:45;;;;;;;9.55;7.17;;;;;;;1.37;79.01;97347.53;1785283;78;25989;-78
2021/04/15 05:53:32;;;;;;;9.68;7.90;;;;;;;1.42;78.98;97338.61;1780180;78;25935;-77
2021/04/15 05:56:05;;;;;;;9.95;7.40;;;;;;;1.47;78.98;97350.09;1771055;78;28805;-78
2021/04/15 05:58:43;;;;;;;9.50;7.05;;;;;;;1.47;78.93;97347.43;1792199;78;26149;-78
2021/04/15 06:01:37;;;;;;;8.35;6.87;;;;;;;1.46;78.84;97343.94;1781451;79;25798;-77
2021/04/15 06:04:36;;;;;;;7.85;6.17;;;;;;;1.42;78.83;97342.11;1788090;78;25684;-77
2021/04/15 06:07:07;;;;;;;8.55;6.90;;;;;;;1.37;78.81;97347.05;1782832;78;25921;-77
2021/04/15 06:09:34;;;;;;;8.93;7.22;;;;;;;1.31;78.80;97345.52;1770922;78;28408;-77
2021/04/15 06:12:26;;;;;;;9.20;7.00;;;;;;;1.34;78.88;97347.84;1770656;78;25782;-77
2021/04/15 06:15:01;;;;;;;9.63;7.85;;;;;;;1.38;78.96;97342.56;1770872;78;26339;-77
2021/04/15 06:17:37;;;;;;;11.35;8.38;;;;;;;1.47;78.97;97354.08;1787958;78;26161;-78
2021/04/15 06:20:25;;;;;;;10.05;7.65;;;;;;;1.45;78.87;97348.91;1796763;78;25746;-78
2021/04/15 06:22:58;;;;;;;11.55;7.58;;;;;;;1.50;78.90;97350.63;1798253;78;26824;-77
2021/04/15 06:25:36;;;;;;;10.53;7.65;;;;;;;1.54;78.85;97342.69;1775427;78;26164;-77
2021/04/15 06:28:10;;;;;;;11.10;7.78;;;;;;;1.59;78.78;97341.70;1782457;78;26452;-77
2021/04/15 06:30:52;;;;;;;11.30;7.87;;;;;;;1.65;78.74;97342.41;1792322;78;25847;-77
2021/04/15 06:33:21;;;;;;;10.82;8.30;;;;;;;1.64;78.62;97340.74;1779009;78;26499;-77
2021/04/15 06:35:53;;;;;;;10.48;7.60;;;;;;;1.68;78.58;97340.78;1777099;78;27479;-77
2021/04/15 06:42:16;;;;;;;11.65;7.53;;;;;;;1.79;78.49;97329.86;1869161;76;35201;-78
2021/04/15 06:45:09;;;;;;;11.28;7.55;;;;;;;1.77;78.45;97337.66;1824635;77;25341;-78
2021/04/15 06:48:31;;;;;;;12.25;7.95;;;;;;;1.68;78.33;97332.80;1747216;78;28474;-78
2021/04/15 06:51:32;;;;;;;10.82;7.58;;;;;;;1.72;78.46;97330.63;1784600;79;26158;-78
2021/04/15 06:54:32;;;;;;;11.38;7.30;;;;;;;1.71;78.44;97332.45;1752564;81;25680;-78
2021/04/15 06:57:41;;;;;;;10.70;6.40;;;;;;;1.76;78.45;97319.52;1771133;79;25881;-78
2021/04/15 07:00:39;;;;;;;10.00;7.03;;;;;;;1.81;78.39;97331.84;1793904;79;25741;-78
2021/04/15 07:03:23;;;;;;;11.68;8.33;;;;;;;1.77;78.28;97324.35;1783433;79;27564;-78
2021/04/15 07:06:08;;;;;;;11.05;7.45;;;;;;;1.83;78.41;97330.84;1792632;79;25738;-78
2021/04/15 07:09:06;;;;;;;8.45;6.37;;;;;;;1.87;78.40;97328.22;1772451;79;25818;-77
2021/04/15 07:12:05;;;;;;;9.18;6.78;;;;;;;1.89;78.19;97333.73;1781375;79;25989;-78
2021/04/15 07:15:04;;;;;;;10.05;6.90;;;;;;;1.90;78.17;97331.91;1794383;79;25908;-77
2021/04/15 07:18:19;;;;;;;8.30;6.58;;;;;;;1.97;78.23;97336.91;1794506;79;27502;-78
2021/04/15 07:21:25;;;;;;;11.30;7.35;;;;;;;2.00;78.17;97336.11;1787504;79;26133;-78
2021/04/15 07:24:23;;;;;;;10.43;7.35;;;;;;;2.02;78.04;97338.12;1793060;79;25718;-78
2021/04/15 07:27:34;;;;;;;12.88;8.93;;;;;;;2.01;78.02;97338.27;1794013;79;25783;-78
2021/04/15 07:30:24;;;;;;;12.45;9.40;;;;;;;2.06;77.99;97339.95;1793638;79;25691;-78
2021/04/15 07:32:57;;;;;;;17.65;10.43;;;;;;;2.11;77.94;97338.98;1778267;79;27506;-78
2021/04/15 07:35:54;;;;;;;15.25;9.50;;;;;;;2.16;77.97;97343.34;1793194;79;25897;-79
2021/04/15 07:38:36;;;;;;;11.95;8.68;;;;;;;2.21;77.93;97346.84;1781462;79;25775;-79
2021/04/15 07:41:43;;;;;;;16.02;9.85;;;;;;;2.18;77.74;97348.81;1782134;79;26361;-79
2021/04/15 07:47:37;;;;;;;14.40;11.27;;;;;;;1.99;77.77;97350.91;1870406;74;32717;-77
2021/04/15 07:50:22;;;;;;;13.72;9.75;;;;;;;2.01;77.61;97351.59;1831770;76;25796;-77
2021/04/15 07:53:15;;;;;;;13.43;9.70;;;;;;;2.06;77.72;97354.09;1845588;75;27480;-79
2021/04/15 07:56:11;;;;;;;14.28;8.00;;;;;;;2.05;77.72;97352.42;1857125;75;25270;-79
2021/04/15 07:59:07;;;;;;;13.80;8.00;;;;;;;2.04;77.79;97352.61;1856894;77;25814;-80
2021/04/15 08:02:21;;;;;;;14.83;8.50;;;;;;;1.94;77.68;97354.53;1855559;77;26252;-80
2021/04/15 08:05:27;;;;;;;11.53;6.70;;;;;;;1.81;77.76;97354.46;1820685;77;25864;-79
2021/04/15 08:08:41;;;;;;;12.70;8.05;;;;;;;1.88;77.97;97353.84;1818164;77;28467;-79
2021/04/15 08:14:44;;;;;;;12.55;8.35;;;;;;;2.07;78.00;97350.94;1849450;74;34817;-77
2021/04/15 08:17:23;;;;;;;10.88;7.28;;;;;;;1.92;77.78;97353.88;1819670;77;25743;-79
2021/04/15 08:20:14;;;;;;;10.50;6.92;;;;;;;1.75;77.77;97355.60;1821595;77;27482;-79
2021/04/15 08:23:08;;;;;;;9.83;6.72;;;;;;;1.63;77.85;97354.20;1840550;75;25779;-79
2021/04/15 08:26:00;;;;;;;9.75;6.85;;;;;;;1.74;78.22;97358.77;1823156;75;25790;-79
2021/04/15 08:29:23;;;;;;;12.78;8.03;;;;;;;1.78;78.21;97353.47;1851810;75;26159;-79
2021/04/15 08:32:14;;;;;;;12.60;7.70;;;;;;;1.92;78.29;97359.20;1834885;77;25728;-78
2021/04/15 08:35:03;;;;;;;13.18;8.50;;;;;;;2.07;78.24;97348.27;1820922;75;27548;-79
2021/04/15 08:38:06;;;;;;;16.12;9.35;;;;;;;2.17;78.20;97349.01;1829567;75;25294;-78
2021/04/15 08:41:19;;;;;;;19.42;10.82;;;;;;;2.33;78.26;97358.86;1848604;75;25693;-78
2021/04/15 08:44:12;;;;;;;16.17;8.80;;;;;;;2.44;78.17;97355.41;1856316;75;25753;-78
2021/04/15 08:47:20;;;;;;;14.85;9.18;;;;;;;2.53;77.86;97358.45;1848710;77;25771;-77
2021/04/15 08:50:05;;;;;;;12.65;8.05;;;;;;;2.54;77.75;97361.43;1817422;77;27548;-77
2021/04/15 08:52:45;;;;;;;11.20;7.95;;;;;;;2.61;77.70;97355.47;1843278;75;26136;-77
2021/04/15 08:55:30;;;;;;;13.98;8.55;;;;;;;2.72;77.70;97356.48;1811904;75;25717;-77
2021/04/15 08:58:43;;;;;;;11.73;8.95;;;;;;;2.80;77.52;97352.50;1808828;77;25811;-77
2021/04/15 09:01:34;;;;;;;12.63;8.30;;;;;;;2.84;77.42;97357.84;1834673;77;25829;-77
2021/04/15 09:04:27;;;;;;;10.78;6.85;;;;;;;2.81;77.21;97356.83;1820923;77;27535;-78
2021/04/15 09:10:29;;;;;;;14.23;9.03;;;;;;;2.95;77.07;97348.69;1848159;77;35704;-76
2021/04/15 09:13:33;;;;;;;10.48;7.72;;;;;;;2.87;76.97;97349.03;1816830;78;25901;-78
2021/04/15 09:16:38;;;;;;;12.33;8.53;;;;;;;2.93;76.91;97351.52;1801778;78;28388;-78
2021/04/15 09:19:52;;;;;;;10.45;7.28;;;;;;;2.99;76.84;97351.38;1791784;78;26139;-78
2021/04/15 09:22:51;;;;;;;14.75;7.70;;;;;;;3.07;76.85;97349.53;1799203;78;25748;-78
2021/04/15 09:25:46;;;;;;;13.28;7.00;;;;;;;3.16;76.73;97349.87;1818986;78;25752;-78
2021/04/15 09:28:22;;;;;;;13.10;7.95;;;;;;;3.16;76.37;97348.53;1822747;78;25774;-79
2021/04/15 09:31:08;;;;;;;12.28;7.67;;;;;;;3.09;76.36;97356.87;1775685;78;27505;-79
2021/04/15 09:34:16;;;;;;;17.30;9.00;;;;;;;3.12;76.54;97349.89;1822232;78;25828;-79
2021/04/15 09:37:14;;;;;;;13.83;8.25;;;;;;;3.12;76.42;97351.22;1813891;78;26324;-79
2021/04/15 09:40:06;;;;;;;11.08;7.75;;;;;;;3.18;76.45;97351.88;1790289;78;26412;-78
2021/04/15 09:42:59;;;;;;;13.08;7.75;;;;;;;3.22;76.36;97361.22;1814053;78;25810;-77
2021/04/15 09:45:47;;;;;;;12.30;8.28;;;;;;;3.18;76.25;97357.20;1763840;80;27549;-78
2021/04/15 09:48:52;;;;;;;12.43;8.20;;;;;;;3.25;76.18;97360.89;1761571;78;25697;-78
2021/04/15 09:51:51;;;;;;;10.95;8.05;;;;;;;3.28;76.00;97361.03;1813108;78;25731;-77
2021/04/15 09:54:23;;;;;;;13.95;8.05;;;;;;;3.32;75.90;97369.05;1790484;78;25741;-77
2021/04/15 09:57:29;;;;;;;16.62;9.18;;;;;;;3.24;75.93;97355.22;1790070;78;25725;-78
2021/04/15 10:00:26;;;;;;;12.80;7.42;;;;;;;3.21;76.00;97363.55;1793162;78;27634;-78
2021/04/15 10:03:17;;;;;;;25.17;14.15;;;;;;;3.25;75.98;97362.73;1803828;78;26071;-78
2021/04/15 10:06:18;;;;;;;34.80;19.32;;;;;;;3.35;75.93;97362.55;1780151;78;26346;-77
2021/04/15 10:09:00;;;;;;;37.42;20.02;;;;;;;3.44;75.92;97352.20;1787750;78;25895;-78
2021/04/15 10:11:52;;;;;;;23.73;14.58;;;;;;;3.49;75.99;97351.20;1792707;79;26342;-78
2021/04/15 10:14:51;;;;;;;20.52;11.60;;;;;;;3.59;75.93;97346.52;1790742;79;27567;-78
2021/04/15 10:17:32;;;;;;;20.65;11.83;;;;;;;3.59;75.59;97346.02;1794057;79;26068;-78
2021/04/15 10:20:17;;;;;;;23.12;13.43;;;;;;;3.52;75.29;97345.52;1782912;79;26345;-78
2021/04/15 10:23:19;;;;;;;25.88;13.65;;;;;;;3.59;75.44;97343.35;1782439;79;25714;-78
2021/04/15 10:26:00;;;;;;;19.07;10.15;;;;;;;3.58;75.42;97348.86;1782177;79;26271;-78
2021/04/15 10:29:01;;;;;;;14.75;8.65;;;;;;;3.71;75.38;97344.33;1797195;79;28769;-78
2021/04/15 10:32:10;;;;;;;16.70;10.18;;;;;;;3.64;74.98;97340.16;1786358;79;25683;-78
2021/04/15 10:34:46;;;;;;;11.28;8.65;;;;;;;3.60;75.03;97342.85;1783358;79;25738;-79
2021/04/15 10:37:45;;;;;;;16.52;11.12;;;;;;;3.61;75.09;97336.52;1798352;79;25703;-79
2021/04/15 10:40:53;;;;;;;14.95;9.50;;;;;;;3.60;74.98;97339.69;1770700;79;25700;-79
2021/04/15 10:43:56;;;;;;;10.75;7.25;;;;;;;3.62;75.08;97338.19;1782575;79;27504;-79
2021/04/15 10:46:49;;;;;;;12.20;7.15;;;;;;;3.70;74.70;97334.16;1782549;79;25789;-80
2021/04/15 10:49:52;;;;;;;8.70;5.97;;;;;;;3.80;74.68;97335.30;1734480;79;25690;-79
2021/04/15 10:52:36;;;;;;;8.65;6.12;;;;;;;3.85;74.33;97334.30;1804972;79;26635;-79
2021/04/15 10:55:16;;;;;;;9.65;6.20;;;;;;;3.80;74.19;97332.63;1803086;79;25781;-79
2021/04/15 10:57:44;;;;;;;11.33;6.28;;;;;;;3.77;74.06;97333.80;1808295;79;28390;-79
2021/04/15 11:00:34;;;;;;;8.35;6.53;;;;;;;3.82;74.04;97334.13;1809992;79;25805;-79
2021/04/15 11:03:19;;;;;;;10.63;7.67;;;;;;;3.92;74.13;97326.75;1795268;78;25717;-80
2021/04/15 11:05:52;;;;;;;10.60;7.12;;;;;;;3.89;73.93;97327.58;1796883;79;25790;-80
2021/04/15 11:08:28;;;;;;;8.88;6.50;;;;;;;3.99;73.95;97334.39;1782792;79;25734;-80
2021/04/15 11:11:19;;;;;;;7.03;6.05;;;;;;;4.04;73.70;97331.72;1784278;78;27487;-80
2021/04/15 11:13:47;;;;;;;9.43;5.97;;;;;;;4.06;73.68;97337.23;1783218;78;25624;-80
2021/04/15 11:16:23;;;;;;;8.68;6.60;;;;;;;3.99;73.43;97333.56;1784217;78;25356;-79
2021/04/15 11:18:51;;;;;;;9.13;7.15;;;;;;;4.05;73.55;97334.72;1784349;78;26302;-80
2021/04/15 11:21:27;;;;;;;10.82;7.55;;;;;;;4.02;73.37;97333.72;1784432;78;25767;-80
2021/04/15 11:23:56;;;;;;;9.68;7.65;;;;;;;4.12;73.58;97338.36;1784355;78;27508;-80
2021/04/15 11:26:46;;;;;;;10.28;7.33;;;;;;;4.26;73.51;97333.13;1784106;78;25688;-80
2021/04/15 11:29:28;;;;;;;9.60;6.40;;;;;;;4.35;73.54;97337.42;1796544;78;25853;-80
2021/04/15 11:31:57;;;;;;;10.48;6.17;;;;;;;4.39;73.11;97335.24;1812619;78;25677;-80
2021/04/15 11:34:27;;;;;;;6.62;5.28;;;;;;;4.42;72.97;97334.91;1803883;78;25355;-80
2021/04/15 11:37:09;;;;;;;6.70;5.20;;;;;;;4.38;72.73;97332.23;1799448;78;27489;-80
2021/04/15 11:39:37;;;;;;;9.60;5.67;;;;;;;4.37;72.72;97329.23;1791777;78;25811;-82
2021/04/15 11:42:15;;;;;;;7.72;5.50;;;;;;;4.38;72.73;97323.39;1798461;78;25754;-82
2021/04/15 11:44:55;;;;;;;6.47;4.83;;;;;;;4.34;72.72;97326.94;1784162;78;25826;-81
2021/04/15 11:47:29;;;;;;;6.75;6.00;;;;;;;4.34;72.64;97332.28;1784223;78;25921;-82
2021/04/15 11:50:14;;;;;;;8.63;5.62;;;;;;;4.44;72.59;97336.07;1785024;78;27486;-80
2021/04/15 11:52:46;;;;;;;8.65;5.37;;;;;;;4.51;72.53;97335.19;1784911;78;26524;-82
2021/04/15 11:55:35;;;;;;;7.83;5.55;;;;;;;4.40;72.21;97331.56;1784129;78;25672;-81
2021/04/15 11:58:08;;;;;;;8.40;5.35;;;;;;;4.37;72.29;97335.92;1790080;78;25765;-81
2021/04/15 12:00:45;;;;;;;7.53;4.90;;;;;;;4.44;72.35;97338.24;1801134;78;25692;-81
2021/04/15 12:03:17;;;;;;;7.45;5.67;;;;;;;4.43;72.18;97328.55;1789045;78;27485;-81
2021/04/15 12:05:49;;;;;;;6.47;5.30;;;;;;;4.47;72.17;97327.17;1816525;78;25750;-81
2021/04/15 12:08:27;;;;;;;7.60;5.67;;;;;;;4.53;72.13;97331.84;1811217;78;25734;-82
2021/04/15 12:11:21;;;;;;;7.72;6.03;;;;;;;4.47;71.86;97333.06;1739271;80;25680;-81
2021/04/15 12:14:00;;;;;;;6.65;5.97;;;;;;;4.33;71.91;97334.63;1772079;80;25856;-81
2021/04/15 12:17:17;;;;;;;8.35;6.10;;;;;;;4.33;72.02;97338.12;1790362;79;28404;-79
2021/04/15 12:20:20;;;;;;;9.50;6.70;;;;;;;4.36;72.09;97334.25;1792389;79;26248;-81
2021/04/15 12:23:23;;;;;;;7.62;5.97;;;;;;;4.42;72.17;97332.23;1759052;80;25700;-80
2021/04/15 12:26:08;;;;;;;9.28;6.50;;;;;;;4.47;72.13;97329.05;1697722;82;25727;-80
2021/04/15 12:29:08;;;;;;;11.68;7.33;;;;;;;4.47;72.05;97332.52;1709561;81;26333;-80
2021/04/15 12:32:10;;;;;;;8.98;5.20;;;;;;;4.48;72.09;97329.34;1729328;81;28459;-79
2021/04/15 12:35:07;;;;;;;7.30;5.50;;;;;;;4.43;71.95;97325.05;1713085;82;25770;-78
2021/04/15 12:37:42;;;;;;;7.37;5.12;;;;;;;4.41;71.90;97333.23;1727484;83;25734;-79
2021/04/15 12:40:25;;;;;;;8.10;6.05;;;;;;;4.32;71.91;97327.11;1736630;80;25772;-78
2021/04/15 12:43:00;;;;;;;7.50;5.85;;;;;;;4.31;71.91;97328.61;1704148;83;25745;-80
2021/04/15 12:45:48;;;;;;;9.35;6.67;;;;;;;4.30;71.93;97332.29;1698358;83;27556;-80
2021/04/15 12:48:44;;;;;;;11.60;7.55;;;;;;;4.15;71.94;97335.34;1727416;82;25810;-80
2021/04/15 12:51:17;;;;;;;11.28;7.60;;;;;;;4.16;72.19;97339.69;1739880;81;25691;-80
2021/04/15 12:53:47;;;;;;;9.33;6.37;;;;;;;4.21;72.23;97337.34;1756076;81;25749;-80
2021/04/15 12:56:22;;;;;;;10.28;6.67;;;;;;;4.23;72.25;97332.64;1751140;81;25720;-80
2021/04/15 12:58:53;;;;;;;9.15;5.85;;;;;;;4.25;72.11;97332.80;1757688;81;27577;-81
2021/04/15 13:01:22;;;;;;;7.37;5.10;;;;;;;4.24;71.92;97331.13;1753821;81;25855;-80
2021/04/15 13:03:51;;;;;;;7.15;5.60;;;;;;;4.09;71.80;97325.37;1741231;81;26277;-80
2021/04/15 13:06:22;;;;;;;7.53;5.72;;;;;;;4.15;71.94;97332.67;1750123;81;26175;-80
2021/04/15 13:08:54;;;;;;;8.88;6.20;;;;;;;4.09;71.78;97327.54;1732562;81;25775;-81
2021/04/15 13:11:30;;;;;;;9.88;6.70;;;;;;;4.01;71.90;97328.05;1733588;81;27475;-80
2021/04/15 13:14:05;;;;;;;10.93;6.72;;;;;;;3.95;71.88;97322.41;1733692;81;25785;-80
2021/04/15 13:16:41;;;;;;;10.35;7.28;;;;;;;3.90;71.94;97319.41;1732095;81;25347;-80